Dickinson Center, New York
Current Conditions -  °F | °C
As of 2:53 PM on Saturday 25 Oct 2014 (Local Time) from KMSS Reporting Station
Light Rain Light Rain  
Wind Chill: 57°   Ceiling: 5500
Heat Index: 57°   Visibility: 8mi
Dew Point: 48°   Wind: 9mph
Humidity: 72%   Direction: 220°SW
Pressure: 29.54"   Gusts: NA
Location:  44.72°N, 74.55°W
Report Text: KMSS 251853Z AUTO 22008KT 190V260 8SM -RA FEW028 BKN055 OVC090 14/09 A2954 RMK AO2 RAB48 SLP006 P0000 T01390089
Loading
Personal Weather Stations






























Interactive Weather Map
Tropical Storm Tracking
New forecast layout! Learn more

10-Day Weather Forecast

Advertisements
Track Severe Weather on mobile